Terminal Aerodrome Forecast
Issued by NWS Blacksburg, VA

Current Version | Previous Version | Graphics & Text | Print | Product List | Glossary On
Versions: 1 2 3 4 5 6 7 8 9 10 11 12 13 14 15 16 17 18 19 20 21 22
000
FTUS41 KRNK 170937 AAA
TAFBLF
TAF AMD
KBLF 170937Z 1710/1806 21004KT P6SM VCSH OVC070
     FM171200 20007KT 4SM -SHRA BR SCT010 OVC030 WS020/23035KT
     FM171800 24012KT P6SM -SHRA OVC050
     FM180000 25012KT P6SM -SHRA OVC020
     FM180400 26010KT 6SM -SHRA BR OVC012=

USA.gov is the U.S. government's official web portal to all federal, state and local government web resources and services.